sensor_id;sensor_type;location;lat;lon;timestamp;temperature;humidity
19085;DHT22;9675;51.538;6.728;2024-03-06T00:00:52;8.30;99.90
19085;DHT22;9675;51.538;6.728;2024-03-06T00:03:19;8.30;99.90
19085;DHT22;9675;51.538;6.728;2024-03-06T00:05:49;8.30;99.90
19085;DHT22;9675;51.538;6.728;2024-03-06T00:08:16;8.30;99.90
19085;DHT22;9675;51.538;6.728;2024-03-06T00:10:43;8.30;99.90
19085;DHT22;9675;51.538;6.728;2024-03-06T00:13:10;8.30;99.90
19085;DHT22;9675;51.538;6.728;2024-03-06T00:15:37;8.30;99.90
19085;DHT22;9675;51.538;6.728;2024-03-06T00:18:05;8.30;99.90
19085;DHT22;9675;51.538;6.728;2024-03-06T00:20:32;8.20;99.90
19085;DHT22;9675;51.538;6.728;2024-03-06T00:23:00;8.20;99.90
19085;DHT22;9675;51.538;6.728;2024-03-06T00:25:27;8.20;99.90
19085;DHT22;9675;51.538;6.728;2024-03-06T00:27:54;8.10;99.90
19085;DHT22;9675;51.538;6.728;2024-03-06T00:30:21;8.20;99.90
19085;DHT22;9675;51.538;6.728;2024-03-06T00:32:48;8.20;99.90
19085;DHT22;9675;51.538;6.728;2024-03-06T00:35:16;8.20;99.90
19085;DHT22;9675;51.538;6.728;2024-03-06T00:37:43;8.20;99.90
19085;DHT22;9675;51.538;6.728;2024-03-06T00:40:12;8.20;99.90
19085;DHT22;9675;51.538;6.728;2024-03-06T00:42:39;8.20;99.90
19085;DHT22;9675;51.538;6.728;2024-03-06T00:45:08;8.20;99.90
19085;DHT22;9675;51.538;6.728;2024-03-06T00:47:35;8.10;99.90
19085;DHT22;9675;51.538;6.728;2024-03-06T00:50:03;8.20;99.90
19085;DHT22;9675;51.538;6.728;2024-03-06T00:52:33;8.10;99.90
19085;DHT22;9675;51.538;6.728;2024-03-06T00:55:00;8.10;99.90
19085;DHT22;9675;51.538;6.728;2024-03-06T00:57:28;8.10;99.90
19085;DHT22;9675;51.538;6.728;2024-03-06T00:59:55;8.10;99.90
19085;DHT22;9675;51.538;6.728;2024-03-06T01:02:22;8.10;99.90
19085;DHT22;9675;51.538;6.728;2024-03-06T01:04:49;8.00;99.90
19085;DHT22;9675;51.538;6.728;2024-03-06T01:07:16;8.00;99.90
19085;DHT22;9675;51.538;6.728;2024-03-06T01:09:44;8.00;99.90
19085;DHT22;9675;51.538;6.728;2024-03-06T01:12:11;8.00;99.90
19085;DHT22;9675;51.538;6.728;2024-03-06T01:14:39;8.00;99.90
19085;DHT22;9675;51.538;6.728;2024-03-06T01:17:08;7.90;99.90
19085;DHT22;9675;51.538;6.728;2024-03-06T01:19:35;7.90;99.90
19085;DHT22;9675;51.538;6.728;2024-03-06T01:22:02;7.90;99.90
19085;DHT22;9675;51.538;6.728;2024-03-06T01:24:29;7.90;99.90
19085;DHT22;9675;51.538;6.728;2024-03-06T01:26:56;7.90;99.90
19085;DHT22;9675;51.538;6.728;2024-03-06T01:29:23;7.90;99.90
19085;DHT22;9675;51.538;6.728;2024-03-06T01:31:51;7.90;99.90
19085;DHT22;9675;51.538;6.728;2024-03-06T01:34:18;7.80;99.90
19085;DHT22;9675;51.538;6.728;2024-03-06T01:36:45;7.80;99.90
19085;DHT22;9675;51.538;6.728;2024-03-06T01:39:12;7.80;99.90
19085;DHT22;9675;51.538;6.728;2024-03-06T01:41:44;7.80;99.90
19085;DHT22;9675;51.538;6.728;2024-03-06T01:44:12;7.80;99.90
19085;DHT22;9675;51.538;6.728;2024-03-06T01:46:39;7.80;99.90
19085;DHT22;9675;51.538;6.728;2024-03-06T01:49:08;7.80;99.90
19085;DHT22;9675;51.538;6.728;2024-03-06T01:51:36;7.70;99.90
19085;DHT22;9675;51.538;6.728;2024-03-06T01:54:03;7.70;99.90
19085;DHT22;9675;51.538;6.728;2024-03-06T01:56:33;7.70;99.90
19085;DHT22;9675;51.538;6.728;2024-03-06T01:59:02;7.70;99.90
19085;DHT22;9675;51.538;6.728;2024-03-06T02:01:30;7.70;99.90
19085;DHT22;9675;51.538;6.728;2024-03-06T02:03:59;7.60;99.90
19085;DHT22;9675;51.538;6.728;2024-03-06T02:06:28;7.60;99.90
19085;DHT22;9675;51.538;6.728;2024-03-06T02:08:56;7.60;99.90
19085;DHT22;9675;51.538;6.728;2024-03-06T02:11:23;7.60;99.90
19085;DHT22;9675;51.538;6.728;2024-03-06T02:13:50;7.60;99.90
19085;DHT22;9675;51.538;6.728;2024-03-06T02:16:17;7.50;99.90
19085;DHT22;9675;51.538;6.728;2024-03-06T02:18:53;7.60;99.90
19085;DHT22;9675;51.538;6.728;2024-03-06T02:21:25;7.60;99.90
19085;DHT22;9675;51.538;6.728;2024-03-06T02:23:52;7.50;99.90
19085;DHT22;9675;51.538;6.728;2024-03-06T02:26:20;7.50;99.90
19085;DHT22;9675;51.538;6.728;2024-03-06T02:28:48;7.50;99.90
19085;DHT22;9675;51.538;6.728;2024-03-06T02:31:16;7.50;99.90
19085;DHT22;9675;51.538;6.728;2024-03-06T02:33:46;7.50;99.90
19085;DHT22;9675;51.538;6.728;2024-03-06T02:36:14;7.50;99.90
19085;DHT22;9675;51.538;6.728;2024-03-06T02:38:43;7.40;99.90
19085;DHT22;9675;51.538;6.728;2024-03-06T02:41:11;7.40;99.90
19085;DHT22;9675;51.538;6.728;2024-03-06T02:43:41;7.40;99.90
19085;DHT22;9675;51.538;6.728;2024-03-06T02:46:08;7.40;99.90
19085;DHT22;9675;51.538;6.728;2024-03-06T02:48:35;7.40;99.90
19085;DHT22;9675;51.538;6.728;2024-03-06T02:51:03;7.40;99.90
19085;DHT22;9675;51.538;6.728;2024-03-06T02:53:30;7.40;99.90
19085;DHT22;9675;51.538;6.728;2024-03-06T02:55:59;7.40;99.90
19085;DHT22;9675;51.538;6.728;2024-03-06T02:58:26;7.30;99.90
19085;DHT22;9675;51.538;6.728;2024-03-06T03:00:57;7.30;99.90
19085;DHT22;9675;51.538;6.728;2024-03-06T03:03:24;7.30;99.90
19085;DHT22;9675;51.538;6.728;2024-03-06T03:05:51;7.30;99.90
19085;DHT22;9675;51.538;6.728;2024-03-06T03:08:18;7.30;99.90
19085;DHT22;9675;51.538;6.728;2024-03-06T03:10:45;7.20;99.90
19085;DHT22;9675;51.538;6.728;2024-03-06T03:13:13;7.20;99.90
19085;DHT22;9675;51.538;6.728;2024-03-06T03:15:40;7.20;99.90
19085;DHT22;9675;51.538;6.728;2024-03-06T03:18:08;7.20;99.90
19085;DHT22;9675;51.538;6.728;2024-03-06T03:20:35;7.10;99.90
19085;DHT22;9675;51.538;6.728;2024-03-06T03:23:03;7.10;99.90
19085;DHT22;9675;51.538;6.728;2024-03-06T03:25:31;7.10;99.90
19085;DHT22;9675;51.538;6.728;2024-03-06T03:27:59;7.10;99.90
19085;DHT22;9675;51.538;6.728;2024-03-06T03:30:27;7.10;99.90
19085;DHT22;9675;51.538;6.728;2024-03-06T03:32:54;7.10;99.90
19085;DHT22;9675;51.538;6.728;2024-03-06T03:35:21;7.00;99.90
19085;DHT22;9675;51.538;6.728;2024-03-06T03:37:50;7.00;99.90
19085;DHT22;9675;51.538;6.728;2024-03-06T03:40:18;7.00;99.90
19085;DHT22;9675;51.538;6.728;2024-03-06T03:42:45;7.00;99.90
19085;DHT22;9675;51.538;6.728;2024-03-06T03:45:13;7.00;99.90
19085;DHT22;9675;51.538;6.728;2024-03-06T03:47:41;7.00;99.90
19085;DHT22;9675;51.538;6.728;2024-03-06T03:50:09;6.90;99.90
19085;DHT22;9675;51.538;6.728;2024-03-06T03:52:36;7.00;99.90
19085;DHT22;9675;51.538;6.728;2024-03-06T03:55:07;6.90;99.90
19085;DHT22;9675;51.538;6.728;2024-03-06T03:57:34;7.00;99.90
19085;DHT22;9675;51.538;6.728;2024-03-06T04:00:01;7.00;99.90
19085;DHT22;9675;51.538;6.728;2024-03-06T04:02:28;6.90;99.90
19085;DHT22;9675;51.538;6.728;2024-03-06T04:04:57;6.90;99.90
19085;DHT22;9675;51.538;6.728;2024-03-06T04:07:24;6.90;99.90
19085;DHT22;9675;51.538;6.728;2024-03-06T04:09:51;6.90;99.90
19085;DHT22;9675;51.538;6.728;2024-03-06T04:12:18;6.90;99.90
19085;DHT22;9675;51.538;6.728;2024-03-06T04:14:45;6.90;99.90
19085;DHT22;9675;51.538;6.728;2024-03-06T04:17:12;6.80;99.90
19085;DHT22;9675;51.538;6.728;2024-03-06T04:19:40;6.80;99.90
19085;DHT22;9675;51.538;6.728;2024-03-06T04:22:09;6.80;99.90
19085;DHT22;9675;51.538;6.728;2024-03-06T04:24:36;6.80;99.90
19085;DHT22;9675;51.538;6.728;2024-03-06T04:27:03;6.80;99.90
19085;DHT22;9675;51.538;6.728;2024-03-06T04:29:30;6.80;99.90
19085;DHT22;9675;51.538;6.728;2024-03-06T04:31:57;6.70;99.90
19085;DHT22;9675;51.538;6.728;2024-03-06T04:34:24;6.70;99.90
19085;DHT22;9675;51.538;6.728;2024-03-06T04:36:51;6.70;99.90
19085;DHT22;9675;51.538;6.728;2024-03-06T04:39:19;6.70;99.90
19085;DHT22;9675;51.538;6.728;2024-03-06T04:41:46;6.70;99.90
19085;DHT22;9675;51.538;6.728;2024-03-06T04:44:14;6.60;99.90
19085;DHT22;9675;51.538;6.728;2024-03-06T04:46:41;6.60;99.90
19085;DHT22;9675;51.538;6.728;2024-03-06T04:49:08;6.60;99.90
19085;DHT22;9675;51.538;6.728;2024-03-06T04:51:35;6.60;99.90
19085;DHT22;9675;51.538;6.728;2024-03-06T04:54:02;6.60;99.90
19085;DHT22;9675;51.538;6.728;2024-03-06T04:56:31;6.60;99.90
19085;DHT22;9675;51.538;6.728;2024-03-06T04:58:58;6.60;99.90
19085;DHT22;9675;51.538;6.728;2024-03-06T05:01:28;6.60;99.90
19085;DHT22;9675;51.538;6.728;2024-03-06T05:03:55;6.50;99.90
19085;DHT22;9675;51.538;6.728;2024-03-06T05:06:22;6.50;99.90
19085;DHT22;9675;51.538;6.728;2024-03-06T05:08:50;6.40;99.90
19085;DHT22;9675;51.538;6.728;2024-03-06T05:11:17;6.40;99.90
19085;DHT22;9675;51.538;6.728;2024-03-06T05:13:45;6.40;99.90
19085;DHT22;9675;51.538;6.728;2024-03-06T05:16:12;6.40;99.90
19085;DHT22;9675;51.538;6.728;2024-03-06T05:18:39;6.40;99.90
19085;DHT22;9675;51.538;6.728;2024-03-06T05:21:06;6.40;99.90
19085;DHT22;9675;51.538;6.728;2024-03-06T05:23:33;6.30;99.90
19085;DHT22;9675;51.538;6.728;2024-03-06T05:26:01;6.30;99.90
19085;DHT22;9675;51.538;6.728;2024-03-06T05:28:28;6.40;99.90
19085;DHT22;9675;51.538;6.728;2024-03-06T05:30:57;6.40;99.90
19085;DHT22;9675;51.538;6.728;2024-03-06T05:33:24;6.40;99.90
19085;DHT22;9675;51.538;6.728;2024-03-06T05:35:52;6.40;99.90
19085;DHT22;9675;51.538;6.728;2024-03-06T05:38:19;6.30;99.90
19085;DHT22;9675;51.538;6.728;2024-03-06T05:40:47;6.30;99.90
19085;DHT22;9675;51.538;6.728;2024-03-06T05:43:14;6.20;99.90
19085;DHT22;9675;51.538;6.728;2024-03-06T05:45:41;6.20;99.90
19085;DHT22;9675;51.538;6.728;2024-03-06T05:48:10;6.20;99.90
19085;DHT22;9675;51.538;6.728;2024-03-06T05:50:37;6.20;99.90
19085;DHT22;9675;51.538;6.728;2024-03-06T05:53:04;6.20;99.90
19085;DHT22;9675;51.538;6.728;2024-03-06T05:55:31;6.30;99.90
19085;DHT22;9675;51.538;6.728;2024-03-06T05:57:58;6.30;99.90
19085;DHT22;9675;51.538;6.728;2024-03-06T06:00:26;6.30;99.90
19085;DHT22;9675;51.538;6.728;2024-03-06T06:02:53;6.30;99.90
19085;DHT22;9675;51.538;6.728;2024-03-06T06:05:21;6.30;99.90
19085;DHT22;9675;51.538;6.728;2024-03-06T06:07:49;6.20;99.90
19085;DHT22;9675;51.538;6.728;2024-03-06T06:10:17;6.20;99.90
19085;DHT22;9675;51.538;6.728;2024-03-06T06:12:44;6.20;99.90
19085;DHT22;9675;51.538;6.728;2024-03-06T06:15:11;6.20;99.90
19085;DHT22;9675;51.538;6.728;2024-03-06T06:17:38;6.20;99.90
19085;DHT22;9675;51.538;6.728;2024-03-06T06:20:09;6.10;99.90
19085;DHT22;9675;51.538;6.728;2024-03-06T06:22:41;6.10;99.90
19085;DHT22;9675;51.538;6.728;2024-03-06T06:25:08;6.10;99.90
19085;DHT22;9675;51.538;6.728;2024-03-06T06:27:35;6.10;99.90
19085;DHT22;9675;51.538;6.728;2024-03-06T06:30:04;6.10;99.90
19085;DHT22;9675;51.538;6.728;2024-03-06T06:32:35;6.10;99.90
19085;DHT22;9675;51.538;6.728;2024-03-06T06:35:03;6.10;99.90
19085;DHT22;9675;51.538;6.728;2024-03-06T06:37:31;6.10;99.90
19085;DHT22;9675;51.538;6.728;2024-03-06T06:40:00;6.10;99.90
19085;DHT22;9675;51.538;6.728;2024-03-06T06:42:31;6.10;99.90
19085;DHT22;9675;51.538;6.728;2024-03-06T06:44:59;6.10;99.90
19085;DHT22;9675;51.538;6.728;2024-03-06T06:47:26;6.10;99.90
19085;DHT22;9675;51.538;6.728;2024-03-06T06:49:53;6.10;99.90
19085;DHT22;9675;51.538;6.728;2024-03-06T06:52:20;6.10;99.90
19085;DHT22;9675;51.538;6.728;2024-03-06T06:54:47;6.10;99.90
19085;DHT22;9675;51.538;6.728;2024-03-06T06:57:18;6.10;99.90
19085;DHT22;9675;51.538;6.728;2024-03-06T06:59:45;6.10;99.90
19085;DHT22;9675;51.538;6.728;2024-03-06T07:02:12;6.10;99.90
19085;DHT22;9675;51.538;6.728;2024-03-06T07:04:39;6.10;99.90
19085;DHT22;9675;51.538;6.728;2024-03-06T07:07:07;6.10;99.90
19085;DHT22;9675;51.538;6.728;2024-03-06T07:09:34;6.10;99.90
19085;DHT22;9675;51.538;6.728;2024-03-06T07:12:01;6.10;99.90
19085;DHT22;9675;51.538;6.728;2024-03-06T07:14:29;6.10;99.90
19085;DHT22;9675;51.538;6.728;2024-03-06T07:16:57;6.10;99.90
19085;DHT22;9675;51.538;6.728;2024-03-06T07:19:24;6.10;99.90
19085;DHT22;9675;51.538;6.728;2024-03-06T07:21:51;6.10;99.90
19085;DHT22;9675;51.538;6.728;2024-03-06T07:24:19;6.10;99.90
19085;DHT22;9675;51.538;6.728;2024-03-06T07:26:46;6.10;99.90
19085;DHT22;9675;51.538;6.728;2024-03-06T07:29:13;6.10;99.90
19085;DHT22;9675;51.538;6.728;2024-03-06T07:31:42;6.10;99.90
19085;DHT22;9675;51.538;6.728;2024-03-06T07:34:10;6.20;99.90
19085;DHT22;9675;51.538;6.728;2024-03-06T07:36:37;6.20;99.90
19085;DHT22;9675;51.538;6.728;2024-03-06T07:39:04;6.20;99.90
19085;DHT22;9675;51.538;6.728;2024-03-06T07:41:31;6.10;99.90
19085;DHT22;9675;51.538;6.728;2024-03-06T07:43:59;6.10;99.90
19085;DHT22;9675;51.538;6.728;2024-03-06T07:46:26;6.10;99.90
19085;DHT22;9675;51.538;6.728;2024-03-06T07:48:55;6.10;99.90
19085;DHT22;9675;51.538;6.728;2024-03-06T07:51:22;6.20;99.90
19085;DHT22;9675;51.538;6.728;2024-03-06T07:53:49;6.20;99.90
19085;DHT22;9675;51.538;6.728;2024-03-06T07:56:18;6.20;99.90
19085;DHT22;9675;51.538;6.728;2024-03-06T07:58:45;6.20;99.90
19085;DHT22;9675;51.538;6.728;2024-03-06T08:01:12;6.20;99.90
19085;DHT22;9675;51.538;6.728;2024-03-06T08:03:39;6.20;99.90
19085;DHT22;9675;51.538;6.728;2024-03-06T08:06:10;6.20;99.90
19085;DHT22;9675;51.538;6.728;2024-03-06T08:08:39;6.20;99.90
19085;DHT22;9675;51.538;6.728;2024-03-06T08:11:06;6.20;99.90
19085;DHT22;9675;51.538;6.728;2024-03-06T08:13:36;6.20;99.90
19085;DHT22;9675;51.538;6.728;2024-03-06T08:16:03;6.20;99.90
19085;DHT22;9675;51.538;6.728;2024-03-06T08:18:31;6.30;99.90
19085;DHT22;9675;51.538;6.728;2024-03-06T08:21:00;6.30;99.90
19085;DHT22;9675;51.538;6.728;2024-03-06T08:23:28;6.30;99.90
19085;DHT22;9675;51.538;6.728;2024-03-06T08:25:56;6.40;99.90
19085;DHT22;9675;51.538;6.728;2024-03-06T08:28:23;6.40;99.90
19085;DHT22;9675;51.538;6.728;2024-03-06T08:30:50;6.50;99.90
19085;DHT22;9675;51.538;6.728;2024-03-06T08:33:17;6.40;99.90
19085;DHT22;9675;51.538;6.728;2024-03-06T08:35:46;6.40;99.90
19085;DHT22;9675;51.538;6.728;2024-03-06T08:38:13;6.40;99.90
19085;DHT22;9675;51.538;6.728;2024-03-06T08:40:44;6.40;99.90
19085;DHT22;9675;51.538;6.728;2024-03-06T08:43:12;6.50;99.90
19085;DHT22;9675;51.538;6.728;2024-03-06T08:45:41;6.50;99.90
19085;DHT22;9675;51.538;6.728;2024-03-06T08:48:08;6.60;99.90
19085;DHT22;9675;51.538;6.728;2024-03-06T08:50:35;6.60;99.90
19085;DHT22;9675;51.538;6.728;2024-03-06T08:53:03;6.60;99.90
19085;DHT22;9675;51.538;6.728;2024-03-06T08:55:30;6.70;99.90
19085;DHT22;9675;51.538;6.728;2024-03-06T08:57:58;6.80;99.90
19085;DHT22;9675;51.538;6.728;2024-03-06T09:00:26;6.80;99.90
19085;DHT22;9675;51.538;6.728;2024-03-06T09:02:53;6.90;99.90
19085;DHT22;9675;51.538;6.728;2024-03-06T09:05:21;6.90;99.90
19085;DHT22;9675;51.538;6.728;2024-03-06T09:07:48;7.00;99.90
19085;DHT22;9675;51.538;6.728;2024-03-06T09:10:14;7.00;99.90
19085;DHT22;9675;51.538;6.728;2024-03-06T09:12:41;7.00;99.90
19085;DHT22;9675;51.538;6.728;2024-03-06T09:15:09;7.10;99.90
19085;DHT22;9675;51.538;6.728;2024-03-06T09:17:37;7.20;99.90
19085;DHT22;9675;51.538;6.728;2024-03-06T09:20:05;7.20;99.90
19085;DHT22;9675;51.538;6.728;2024-03-06T09:22:36;7.20;99.90
19085;DHT22;9675;51.538;6.728;2024-03-06T09:25:04;7.30;99.90
19085;DHT22;9675;51.538;6.728;2024-03-06T09:27:32;7.30;99.90
19085;DHT22;9675;51.538;6.728;2024-03-06T09:29:59;7.40;99.90
19085;DHT22;9675;51.538;6.728;2024-03-06T09:32:29;7.40;99.90
19085;DHT22;9675;51.538;6.728;2024-03-06T09:34:57;7.50;99.90
19085;DHT22;9675;51.538;6.728;2024-03-06T09:37:25;7.50;99.90
19085;DHT22;9675;51.538;6.728;2024-03-06T09:39:53;7.60;99.90
19085;DHT22;9675;51.538;6.728;2024-03-06T09:42:20;7.60;99.90
19085;DHT22;9675;51.538;6.728;2024-03-06T09:44:48;7.70;99.90
19085;DHT22;9675;51.538;6.728;2024-03-06T09:47:21;7.70;99.90
19085;DHT22;9675;51.538;6.728;2024-03-06T09:49:52;7.70;99.90
19085;DHT22;9675;51.538;6.728;2024-03-06T09:52:20;7.80;99.90
19085;DHT22;9675;51.538;6.728;2024-03-06T09:54:48;7.90;99.90
19085;DHT22;9675;51.538;6.728;2024-03-06T09:57:17;7.90;99.90
19085;DHT22;9675;51.538;6.728;2024-03-06T09:59:44;8.00;99.90
19085;DHT22;9675;51.538;6.728;2024-03-06T10:02:18;8.00;99.90
19085;DHT22;9675;51.538;6.728;2024-03-06T10:04:58;8.10;99.90
19085;DHT22;9675;51.538;6.728;2024-03-06T10:07:25;8.10;99.90
19085;DHT22;9675;51.538;6.728;2024-03-06T10:09:53;8.20;99.90
19085;DHT22;9675;51.538;6.728;2024-03-06T10:12:21;8.20;99.90
19085;DHT22;9675;51.538;6.728;2024-03-06T10:14:51;8.20;99.90
19085;DHT22;9675;51.538;6.728;2024-03-06T10:17:20;8.30;99.90
19085;DHT22;9675;51.538;6.728;2024-03-06T10:19:48;8.30;99.90
19085;DHT22;9675;51.538;6.728;2024-03-06T10:22:18;8.40;99.90
19085;DHT22;9675;51.538;6.728;2024-03-06T10:24:46;8.40;99.90
19085;DHT22;9675;51.538;6.728;2024-03-06T10:27:15;8.50;99.90
19085;DHT22;9675;51.538;6.728;2024-03-06T10:29:43;8.50;99.90
19085;DHT22;9675;51.538;6.728;2024-03-06T10:32:10;8.60;99.90
19085;DHT22;9675;51.538;6.728;2024-03-06T10:34:45;8.60;99.90
19085;DHT22;9675;51.538;6.728;2024-03-06T10:37:12;8.70;99.90
19085;DHT22;9675;51.538;6.728;2024-03-06T10:39:42;8.70;99.90
19085;DHT22;9675;51.538;6.728;2024-03-06T10:42:13;8.80;99.90
19085;DHT22;9675;51.538;6.728;2024-03-06T10:44:51;8.90;99.90
19085;DHT22;9675;51.538;6.728;2024-03-06T10:47:21;9.00;99.90
19085;DHT22;9675;51.538;6.728;2024-03-06T10:49:52;9.00;99.90
19085;DHT22;9675;51.538;6.728;2024-03-06T10:52:20;9.10;99.90
19085;DHT22;9675;51.538;6.728;2024-03-06T10:54:50;9.10;99.90
19085;DHT22;9675;51.538;6.728;2024-03-06T10:57:18;9.20;99.90
19085;DHT22;9675;51.538;6.728;2024-03-06T10:59:46;9.30;99.90
19085;DHT22;9675;51.538;6.728;2024-03-06T11:02:15;9.40;99.90
19085;DHT22;9675;51.538;6.728;2024-03-06T11:04:43;9.50;99.90
19085;DHT22;9675;51.538;6.728;2024-03-06T11:07:11;9.50;99.90
19085;DHT22;9675;51.538;6.728;2024-03-06T11:09:38;9.60;99.90
19085;DHT22;9675;51.538;6.728;2024-03-06T11:12:07;9.70;99.90
19085;DHT22;9675;51.538;6.728;2024-03-06T11:14:36;9.80;99.90
19085;DHT22;9675;51.538;6.728;2024-03-06T11:17:05;9.80;99.90
19085;DHT22;9675;51.538;6.728;2024-03-06T11:20:08;9.90;99.90
19085;DHT22;9675;51.538;6.728;2024-03-06T11:23:02;10.10;99.90
19085;DHT22;9675;51.538;6.728;2024-03-06T11:28:38;10.30;99.90
19085;DHT22;9675;51.538;6.728;2024-03-06T11:31:16;10.40;99.90
19085;DHT22;9675;51.538;6.728;2024-03-06T11:33:47;10.40;99.90
19085;DHT22;9675;51.538;6.728;2024-03-06T11:36:22;10.50;99.90
19085;DHT22;9675;51.538;6.728;2024-03-06T11:38:51;10.60;99.90
19085;DHT22;9675;51.538;6.728;2024-03-06T11:41:20;10.60;99.90
19085;DHT22;9675;51.538;6.728;2024-03-06T11:43:52;10.70;99.90
19085;DHT22;9675;51.538;6.728;2024-03-06T11:46:21;10.80;99.90
19085;DHT22;9675;51.538;6.728;2024-03-06T11:48:53;10.80;99.90
19085;DHT22;9675;51.538;6.728;2024-03-06T11:51:21;10.80;99.90
19085;DHT22;9675;51.538;6.728;2024-03-06T11:53:52;10.90;99.90
19085;DHT22;9675;51.538;6.728;2024-03-06T11:56:20;10.90;99.90
19085;DHT22;9675;51.538;6.728;2024-03-06T11:58:48;10.90;99.90
19085;DHT22;9675;51.538;6.728;2024-03-06T12:01:16;10.90;99.90
19085;DHT22;9675;51.538;6.728;2024-03-06T12:03:44;11.00;99.90
19085;DHT22;9675;51.538;6.728;2024-03-06T12:06:11;11.00;99.90
19085;DHT22;9675;51.538;6.728;2024-03-06T12:08:39;11.00;99.90
19085;DHT22;9675;51.538;6.728;2024-03-06T12:11:06;11.00;99.90
19085;DHT22;9675;51.538;6.728;2024-03-06T12:13:34;11.00;99.90
19085;DHT22;9675;51.538;6.728;2024-03-06T12:16:05;11.10;99.90
19085;DHT22;9675;51.538;6.728;2024-03-06T12:18:34;11.10;99.90
19085;DHT22;9675;51.538;6.728;2024-03-06T12:21:02;11.10;99.90
19085;DHT22;9675;51.538;6.728;2024-03-06T12:23:31;11.10;99.90
19085;DHT22;9675;51.538;6.728;2024-03-06T12:26:05;11.10;99.90
19085;DHT22;9675;51.538;6.728;2024-03-06T12:28:34;11.10;99.90
19085;DHT22;9675;51.538;6.728;2024-03-06T12:31:02;11.10;99.90
19085;DHT22;9675;51.538;6.728;2024-03-06T12:33:30;11.10;99.90
19085;DHT22;9675;51.538;6.728;2024-03-06T12:36:06;11.10;99.90
19085;DHT22;9675;51.538;6.728;2024-03-06T12:38:36;11.10;99.90
19085;DHT22;9675;51.538;6.728;2024-03-06T12:41:04;11.10;99.90
19085;DHT22;9675;51.538;6.728;2024-03-06T12:43:31;11.20;99.90
19085;DHT22;9675;51.538;6.728;2024-03-06T12:46:00;11.20;99.90
19085;DHT22;9675;51.538;6.728;2024-03-06T12:48:28;11.20;99.90
19085;DHT22;9675;51.538;6.728;2024-03-06T12:50:55;11.20;99.90
19085;DHT22;9675;51.538;6.728;2024-03-06T12:53:31;11.20;99.90
19085;DHT22;9675;51.538;6.728;2024-03-06T12:55:58;11.20;99.90
19085;DHT22;9675;51.538;6.728;2024-03-06T12:58:25;11.20;99.90
19085;DHT22;9675;51.538;6.728;2024-03-06T13:00:53;11.20;99.90
19085;DHT22;9675;51.538;6.728;2024-03-06T13:03:27;11.20;99.90
19085;DHT22;9675;51.538;6.728;2024-03-06T13:05:54;11.20;99.90
19085;DHT22;9675;51.538;6.728;2024-03-06T13:08:21;11.20;99.90
19085;DHT22;9675;51.538;6.728;2024-03-06T13:10:50;11.20;99.90
19085;DHT22;9675;51.538;6.728;2024-03-06T13:13:17;11.20;99.90
19085;DHT22;9675;51.538;6.728;2024-03-06T13:15:44;11.20;99.90
19085;DHT22;9675;51.538;6.728;2024-03-06T13:18:13;11.20;99.90
19085;DHT22;9675;51.538;6.728;2024-03-06T13:20:41;11.30;99.90
19085;DHT22;9675;51.538;6.728;2024-03-06T13:23:08;11.20;99.90
19085;DHT22;9675;51.538;6.728;2024-03-06T13:25:35;11.30;99.90
19085;DHT22;9675;51.538;6.728;2024-03-06T13:28:04;11.20;99.90
19085;DHT22;9675;51.538;6.728;2024-03-06T13:30:31;11.30;99.90
19085;DHT22;9675;51.538;6.728;2024-03-06T13:32:59;11.30;99.90
19085;DHT22;9675;51.538;6.728;2024-03-06T13:35:26;11.30;99.90
19085;DHT22;9675;51.538;6.728;2024-03-06T13:37:54;11.30;99.90
19085;DHT22;9675;51.538;6.728;2024-03-06T13:40:21;11.30;99.90
19085;DHT22;9675;51.538;6.728;2024-03-06T13:42:48;11.40;99.90
19085;DHT22;9675;51.538;6.728;2024-03-06T13:45:17;11.40;99.90
19085;DHT22;9675;51.538;6.728;2024-03-06T13:47:44;11.40;99.90
19085;DHT22;9675;51.538;6.728;2024-03-06T13:50:13;11.50;99.90
19085;DHT22;9675;51.538;6.728;2024-03-06T13:52:41;11.50;99.90
19085;DHT22;9675;51.538;6.728;2024-03-06T13:55:10;11.50;99.90
19085;DHT22;9675;51.538;6.728;2024-03-06T13:57:39;11.50;99.90
19085;DHT22;9675;51.538;6.728;2024-03-06T14:00:08;11.50;99.90
19085;DHT22;9675;51.538;6.728;2024-03-06T14:02:44;11.50;99.90
19085;DHT22;9675;51.538;6.728;2024-03-06T14:05:12;11.60;99.90
19085;DHT22;9675;51.538;6.728;2024-03-06T14:07:40;11.60;99.90
19085;DHT22;9675;51.538;6.728;2024-03-06T14:10:07;11.60;99.90
19085;DHT22;9675;51.538;6.728;2024-03-06T14:12:36;11.70;99.90
19085;DHT22;9675;51.538;6.728;2024-03-06T14:15:04;11.70;99.90
19085;DHT22;9675;51.538;6.728;2024-03-06T14:17:34;11.80;99.90
19085;DHT22;9675;51.538;6.728;2024-03-06T14:20:03;11.80;99.90
19085;DHT22;9675;51.538;6.728;2024-03-06T14:22:31;11.90;99.90
19085;DHT22;9675;51.538;6.728;2024-03-06T14:24:58;11.90;99.90
19085;DHT22;9675;51.538;6.728;2024-03-06T14:27:25;11.90;99.90
19085;DHT22;9675;51.538;6.728;2024-03-06T14:29:52;11.90;99.90
19085;DHT22;9675;51.538;6.728;2024-03-06T14:32:20;12.00;99.90
19085;DHT22;9675;51.538;6.728;2024-03-06T14:34:48;12.00;99.90
19085;DHT22;9675;51.538;6.728;2024-03-06T14:37:17;12.00;99.90
19085;DHT22;9675;51.538;6.728;2024-03-06T14:39:44;12.00;99.90
19085;DHT22;9675;51.538;6.728;2024-03-06T14:42:12;12.00;99.90
19085;DHT22;9675;51.538;6.728;2024-03-06T14:44:40;12.00;99.90
19085;DHT22;9675;51.538;6.728;2024-03-06T14:47:10;12.00;99.90
19085;DHT22;9675;51.538;6.728;2024-03-06T14:49:37;12.00;99.90
19085;DHT22;9675;51.538;6.728;2024-03-06T14:52:04;12.10;99.90
19085;DHT22;9675;51.538;6.728;2024-03-06T14:54:33;12.10;99.90
19085;DHT22;9675;51.538;6.728;2024-03-06T14:57:00;12.10;99.90
19085;DHT22;9675;51.538;6.728;2024-03-06T14:59:27;12.20;99.90
19085;DHT22;9675;51.538;6.728;2024-03-06T15:01:54;12.20;99.90
19085;DHT22;9675;51.538;6.728;2024-03-06T15:04:21;12.30;99.90
19085;DHT22;9675;51.538;6.728;2024-03-06T15:06:49;12.30;99.90
19085;DHT22;9675;51.538;6.728;2024-03-06T15:09:16;12.40;99.90
19085;DHT22;9675;51.538;6.728;2024-03-06T15:11:48;12.40;99.90
19085;DHT22;9675;51.538;6.728;2024-03-06T15:14:17;12.40;99.90
19085;DHT22;9675;51.538;6.728;2024-03-06T15:16:44;12.40;99.90
19085;DHT22;9675;51.538;6.728;2024-03-06T15:19:11;12.40;99.90
19085;DHT22;9675;51.538;6.728;2024-03-06T15:21:38;12.40;99.90
19085;DHT22;9675;51.538;6.728;2024-03-06T15:24:06;12.50;99.90
19085;DHT22;9675;51.538;6.728;2024-03-06T15:26:33;12.50;99.90
19085;DHT22;9675;51.538;6.728;2024-03-06T15:29:03;12.50;99.90
19085;DHT22;9675;51.538;6.728;2024-03-06T15:31:32;12.50;99.90
19085;DHT22;9675;51.538;6.728;2024-03-06T15:33:59;12.50;99.90
19085;DHT22;9675;51.538;6.728;2024-03-06T15:36:26;12.50;99.90
19085;DHT22;9675;51.538;6.728;2024-03-06T15:38:53;12.50;99.90
19085;DHT22;9675;51.538;6.728;2024-03-06T15:41:22;12.50;99.90
19085;DHT22;9675;51.538;6.728;2024-03-06T15:43:49;12.50;99.90
19085;DHT22;9675;51.538;6.728;2024-03-06T15:46:18;12.50;99.90
19085;DHT22;9675;51.538;6.728;2024-03-06T15:48:45;12.60;99.90
19085;DHT22;9675;51.538;6.728;2024-03-06T15:51:12;12.60;99.90
19085;DHT22;9675;51.538;6.728;2024-03-06T15:53:39;12.60;99.90
19085;DHT22;9675;51.538;6.728;2024-03-06T15:56:06;12.50;99.90
19085;DHT22;9675;51.538;6.728;2024-03-06T15:58:33;12.50;99.90
19085;DHT22;9675;51.538;6.728;2024-03-06T16:01:00;12.50;99.90
19085;DHT22;9675;51.538;6.728;2024-03-06T16:03:30;12.50;99.90
19085;DHT22;9675;51.538;6.728;2024-03-06T16:05:57;12.50;99.90